sensor_id;sensor_type;location;lat;lon;timestamp;P1;durP1;ratioP1;P2;durP2;ratioP2
16466;SDS011;8344;47.560;9.710;2024-03-25T00:00:22;0.40;;;0.40;;
16466;SDS011;8344;47.560;9.710;2024-03-25T00:02:50;0.53;;;0.53;;
16466;SDS011;8344;47.560;9.710;2024-03-25T00:05:15;0.50;;;0.50;;
16466;SDS011;8344;47.560;9.710;2024-03-25T00:07:47;0.70;;;0.70;;
16466;SDS011;8344;47.560;9.710;2024-03-25T00:10:12;0.60;;;0.60;;
16466;SDS011;8344;47.560;9.710;2024-03-25T00:12:37;0.60;;;0.60;;
16466;SDS011;8344;47.560;9.710;2024-03-25T00:15:03;0.60;;;0.60;;
16466;SDS011;8344;47.560;9.710;2024-03-25T00:17:29;0.63;;;0.63;;
16466;SDS011;8344;47.560;9.710;2024-03-25T00:19:54;0.50;;;0.50;;
16466;SDS011;8344;47.560;9.710;2024-03-25T00:22:20;0.60;;;0.60;;
16466;SDS011;8344;47.560;9.710;2024-03-25T00:24:46;0.60;;;0.60;;
16466;SDS011;8344;47.560;9.710;2024-03-25T00:27:15;0.60;;;0.60;;
16466;SDS011;8344;47.560;9.710;2024-03-25T00:29:40;0.40;;;0.40;;
16466;SDS011;8344;47.560;9.710;2024-03-25T00:32:06;0.60;;;0.60;;
16466;SDS011;8344;47.560;9.710;2024-03-25T00:34:31;0.60;;;0.60;;
16466;SDS011;8344;47.560;9.710;2024-03-25T00:36:57;0.60;;;0.60;;
16466;SDS011;8344;47.560;9.710;2024-03-25T00:39:23;0.40;;;0.40;;
16466;SDS011;8344;47.560;9.710;2024-03-25T00:41:48;0.50;;;0.50;;
16466;SDS011;8344;47.560;9.710;2024-03-25T00:44:14;0.50;;;0.50;;
16466;SDS011;8344;47.560;9.710;2024-03-25T00:46:39;0.50;;;0.50;;
16466;SDS011;8344;47.560;9.710;2024-03-25T00:49:06;0.60;;;0.60;;
16466;SDS011;8344;47.560;9.710;2024-03-25T00:51:32;0.60;;;0.60;;
16466;SDS011;8344;47.560;9.710;2024-03-25T00:53:57;0.40;;;0.40;;
16466;SDS011;8344;47.560;9.710;2024-03-25T00:56:22;0.60;;;0.60;;
16466;SDS011;8344;47.560;9.710;2024-03-25T00:58:48;0.87;;;0.87;;
16466;SDS011;8344;47.560;9.710;2024-03-25T01:01:13;0.50;;;0.50;;
16466;SDS011;8344;47.560;9.710;2024-03-25T01:03:39;0.60;;;0.60;;
16466;SDS011;8344;47.560;9.710;2024-03-25T01:06:04;0.80;;;0.80;;
16466;SDS011;8344;47.560;9.710;2024-03-25T01:08:29;0.50;;;0.50;;
16466;SDS011;8344;47.560;9.710;2024-03-25T01:10:55;0.50;;;0.50;;
16466;SDS011;8344;47.560;9.710;2024-03-25T01:13:20;0.70;;;0.70;;
16466;SDS011;8344;47.560;9.710;2024-03-25T01:15:46;0.50;;;0.50;;
16466;SDS011;8344;47.560;9.710;2024-03-25T01:18:11;0.60;;;0.60;;
16466;SDS011;8344;47.560;9.710;2024-03-25T01:20:36;0.50;;;0.50;;
16466;SDS011;8344;47.560;9.710;2024-03-25T01:23:02;0.60;;;0.60;;
16466;SDS011;8344;47.560;9.710;2024-03-25T01:25:27;0.63;;;0.63;;
16466;SDS011;8344;47.560;9.710;2024-03-25T01:27:52;0.60;;;0.60;;
16466;SDS011;8344;47.560;9.710;2024-03-25T01:30:17;0.50;;;0.50;;
16466;SDS011;8344;47.560;9.710;2024-03-25T01:32:44;0.57;;;0.57;;
16466;SDS011;8344;47.560;9.710;2024-03-25T01:35:11;0.50;;;0.50;;
16466;SDS011;8344;47.560;9.710;2024-03-25T01:37:36;0.50;;;0.50;;
16466;SDS011;8344;47.560;9.710;2024-03-25T01:40:02;0.60;;;0.60;;
16466;SDS011;8344;47.560;9.710;2024-03-25T01:42:29;0.57;;;0.57;;
16466;SDS011;8344;47.560;9.710;2024-03-25T01:44:54;0.50;;;0.50;;
16466;SDS011;8344;47.560;9.710;2024-03-25T01:47:20;0.50;;;0.50;;
16466;SDS011;8344;47.560;9.710;2024-03-25T01:49:45;0.50;;;0.50;;
16466;SDS011;8344;47.560;9.710;2024-03-25T01:52:11;0.57;;;0.57;;
16466;SDS011;8344;47.560;9.710;2024-03-25T01:54:36;0.60;;;0.60;;
16466;SDS011;8344;47.560;9.710;2024-03-25T01:57:02;0.50;;;0.50;;
16466;SDS011;8344;47.560;9.710;2024-03-25T01:59:28;0.50;;;0.50;;
16466;SDS011;8344;47.560;9.710;2024-03-25T02:01:53;0.50;;;0.50;;
16466;SDS011;8344;47.560;9.710;2024-03-25T02:04:19;0.67;;;0.67;;
16466;SDS011;8344;47.560;9.710;2024-03-25T02:06:45;0.57;;;0.57;;
16466;SDS011;8344;47.560;9.710;2024-03-25T02:09:10;0.50;;;0.50;;
16466;SDS011;8344;47.560;9.710;2024-03-25T02:11:37;0.50;;;0.50;;
16466;SDS011;8344;47.560;9.710;2024-03-25T02:14:03;0.60;;;0.60;;
16466;SDS011;8344;47.560;9.710;2024-03-25T02:16:28;0.50;;;0.50;;
16466;SDS011;8344;47.560;9.710;2024-03-25T02:18:53;0.53;;;0.53;;
16466;SDS011;8344;47.560;9.710;2024-03-25T02:21:19;0.70;;;0.70;;
16466;SDS011;8344;47.560;9.710;2024-03-25T02:23:44;0.60;;;0.60;;
16466;SDS011;8344;47.560;9.710;2024-03-25T02:26:10;0.60;;;0.60;;
16466;SDS011;8344;47.560;9.710;2024-03-25T02:28:35;0.70;;;0.70;;
16466;SDS011;8344;47.560;9.710;2024-03-25T02:31:01;0.50;;;0.50;;
16466;SDS011;8344;47.560;9.710;2024-03-25T02:33:26;0.50;;;0.50;;
16466;SDS011;8344;47.560;9.710;2024-03-25T02:35:51;0.70;;;0.70;;
16466;SDS011;8344;47.560;9.710;2024-03-25T02:38:17;0.43;;;0.43;;
16466;SDS011;8344;47.560;9.710;2024-03-25T02:40:43;0.60;;;0.60;;
16466;SDS011;8344;47.560;9.710;2024-03-25T02:43:10;0.50;;;0.50;;
16466;SDS011;8344;47.560;9.710;2024-03-25T02:45:35;0.50;;;0.50;;
16466;SDS011;8344;47.560;9.710;2024-03-25T02:48:00;0.60;;;0.60;;
16466;SDS011;8344;47.560;9.710;2024-03-25T02:50:26;0.50;;;0.50;;
16466;SDS011;8344;47.560;9.710;2024-03-25T02:52:52;0.80;;;0.80;;
16466;SDS011;8344;47.560;9.710;2024-03-25T02:55:17;0.70;;;0.70;;
16466;SDS011;8344;47.560;9.710;2024-03-25T02:57:42;0.50;;;0.50;;
16466;SDS011;8344;47.560;9.710;2024-03-25T03:00:08;0.50;;;0.50;;
16466;SDS011;8344;47.560;9.710;2024-03-25T03:02:34;0.80;;;0.80;;
16466;SDS011;8344;47.560;9.710;2024-03-25T03:04:59;0.60;;;0.60;;
16466;SDS011;8344;47.560;9.710;2024-03-25T03:07:25;0.50;;;0.50;;
16466;SDS011;8344;47.560;9.710;2024-03-25T03:09:51;0.70;;;0.70;;
16466;SDS011;8344;47.560;9.710;2024-03-25T03:12:16;0.60;;;0.60;;
16466;SDS011;8344;47.560;9.710;2024-03-25T03:14:41;0.50;;;0.50;;
16466;SDS011;8344;47.560;9.710;2024-03-25T03:17:06;0.60;;;0.60;;
16466;SDS011;8344;47.560;9.710;2024-03-25T03:19:32;0.60;;;0.60;;
16466;SDS011;8344;47.560;9.710;2024-03-25T03:21:57;0.50;;;0.50;;
16466;SDS011;8344;47.560;9.710;2024-03-25T03:24:22;0.50;;;0.50;;
16466;SDS011;8344;47.560;9.710;2024-03-25T03:26:48;0.47;;;0.47;;
16466;SDS011;8344;47.560;9.710;2024-03-25T03:29:13;0.50;;;0.50;;
16466;SDS011;8344;47.560;9.710;2024-03-25T03:31:39;0.60;;;0.60;;
16466;SDS011;8344;47.560;9.710;2024-03-25T03:34:04;0.50;;;0.50;;
16466;SDS011;8344;47.560;9.710;2024-03-25T03:36:29;0.70;;;0.70;;
16466;SDS011;8344;47.560;9.710;2024-03-25T03:38:54;0.60;;;0.60;;
16466;SDS011;8344;47.560;9.710;2024-03-25T03:41:20;0.50;;;0.50;;
16466;SDS011;8344;47.560;9.710;2024-03-25T03:43:45;0.80;;;0.80;;
16466;SDS011;8344;47.560;9.710;2024-03-25T03:46:10;0.60;;;0.60;;
16466;SDS011;8344;47.560;9.710;2024-03-25T03:48:36;0.60;;;0.60;;
16466;SDS011;8344;47.560;9.710;2024-03-25T03:51:03;0.70;;;0.70;;
16466;SDS011;8344;47.560;9.710;2024-03-25T03:53:28;0.67;;;0.67;;
16466;SDS011;8344;47.560;9.710;2024-03-25T03:55:57;0.50;;;0.50;;
16466;SDS011;8344;47.560;9.710;2024-03-25T03:58:24;0.67;;;0.67;;
16466;SDS011;8344;47.560;9.710;2024-03-25T04:00:50;0.50;;;0.50;;
16466;SDS011;8344;47.560;9.710;2024-03-25T04:03:15;0.73;;;0.73;;
16466;SDS011;8344;47.560;9.710;2024-03-25T04:05:41;0.73;;;0.73;;
16466;SDS011;8344;47.560;9.710;2024-03-25T04:08:06;0.60;;;0.60;;
16466;SDS011;8344;47.560;9.710;2024-03-25T04:10:32;0.50;;;0.50;;
16466;SDS011;8344;47.560;9.710;2024-03-25T04:12:58;0.60;;;0.60;;
16466;SDS011;8344;47.560;9.710;2024-03-25T04:15:23;0.63;;;0.63;;
16466;SDS011;8344;47.560;9.710;2024-03-25T04:17:48;0.60;;;0.60;;
16466;SDS011;8344;47.560;9.710;2024-03-25T04:20:14;0.60;;;0.60;;
16466;SDS011;8344;47.560;9.710;2024-03-25T04:22:43;0.70;;;0.70;;
16466;SDS011;8344;47.560;9.710;2024-03-25T04:25:09;0.50;;;0.50;;
16466;SDS011;8344;47.560;9.710;2024-03-25T04:27:39;0.53;;;0.53;;
16466;SDS011;8344;47.560;9.710;2024-03-25T04:30:05;0.70;;;0.70;;
16466;SDS011;8344;47.560;9.710;2024-03-25T04:32:32;0.60;;;0.60;;
16466;SDS011;8344;47.560;9.710;2024-03-25T04:34:58;0.50;;;0.50;;
16466;SDS011;8344;47.560;9.710;2024-03-25T04:37:23;0.60;;;0.60;;
16466;SDS011;8344;47.560;9.710;2024-03-25T04:39:48;0.60;;;0.60;;
16466;SDS011;8344;47.560;9.710;2024-03-25T04:42:14;0.60;;;0.60;;
16466;SDS011;8344;47.560;9.710;2024-03-25T04:44:39;0.40;;;0.40;;
16466;SDS011;8344;47.560;9.710;2024-03-25T04:47:05;0.67;;;0.67;;
16466;SDS011;8344;47.560;9.710;2024-03-25T04:49:31;0.60;;;0.60;;
16466;SDS011;8344;47.560;9.710;2024-03-25T04:51:56;0.50;;;0.50;;
16466;SDS011;8344;47.560;9.710;2024-03-25T04:54:21;0.63;;;0.63;;
16466;SDS011;8344;47.560;9.710;2024-03-25T04:56:47;0.53;;;0.53;;
16466;SDS011;8344;47.560;9.710;2024-03-25T04:59:12;0.57;;;0.57;;
16466;SDS011;8344;47.560;9.710;2024-03-25T05:01:38;0.80;;;0.80;;
16466;SDS011;8344;47.560;9.710;2024-03-25T05:04:03;0.70;;;0.70;;
16466;SDS011;8344;47.560;9.710;2024-03-25T05:06:28;0.67;;;0.67;;
16466;SDS011;8344;47.560;9.710;2024-03-25T05:08:53;0.70;;;0.70;;
16466;SDS011;8344;47.560;9.710;2024-03-25T05:11:19;0.50;;;0.50;;
16466;SDS011;8344;47.560;9.710;2024-03-25T05:13:44;0.70;;;0.70;;
16466;SDS011;8344;47.560;9.710;2024-03-25T05:16:10;0.60;;;0.60;;
16466;SDS011;8344;47.560;9.710;2024-03-25T05:18:35;0.70;;;0.70;;
16466;SDS011;8344;47.560;9.710;2024-03-25T05:21:01;0.50;;;0.50;;
16466;SDS011;8344;47.560;9.710;2024-03-25T05:23:26;0.50;;;0.50;;
16466;SDS011;8344;47.560;9.710;2024-03-25T05:25:51;0.63;;;0.63;;
16466;SDS011;8344;47.560;9.710;2024-03-25T05:28:17;0.63;;;0.63;;
16466;SDS011;8344;47.560;9.710;2024-03-25T05:30:42;0.50;;;0.50;;
16466;SDS011;8344;47.560;9.710;2024-03-25T05:33:07;0.50;;;0.50;;
16466;SDS011;8344;47.560;9.710;2024-03-25T05:35:32;0.80;;;0.80;;
16466;SDS011;8344;47.560;9.710;2024-03-25T05:38:01;0.70;;;0.70;;
16466;SDS011;8344;47.560;9.710;2024-03-25T05:40:28;0.50;;;0.50;;
16466;SDS011;8344;47.560;9.710;2024-03-25T05:42:53;0.60;;;0.60;;
16466;SDS011;8344;47.560;9.710;2024-03-25T05:45:18;0.70;;;0.70;;
16466;SDS011;8344;47.560;9.710;2024-03-25T05:47:44;0.70;;;0.70;;
16466;SDS011;8344;47.560;9.710;2024-03-25T05:50:09;0.60;;;0.60;;
16466;SDS011;8344;47.560;9.710;2024-03-25T05:52:35;0.70;;;0.70;;
16466;SDS011;8344;47.560;9.710;2024-03-25T05:55:01;0.60;;;0.60;;
16466;SDS011;8344;47.560;9.710;2024-03-25T05:57:26;0.70;;;0.70;;
16466;SDS011;8344;47.560;9.710;2024-03-25T05:59:51;0.50;;;0.50;;
16466;SDS011;8344;47.560;9.710;2024-03-25T06:02:16;0.63;;;0.63;;
16466;SDS011;8344;47.560;9.710;2024-03-25T06:04:42;0.63;;;0.63;;
16466;SDS011;8344;47.560;9.710;2024-03-25T06:07:07;0.53;;;0.53;;
16466;SDS011;8344;47.560;9.710;2024-03-25T06:09:33;0.73;;;0.73;;
16466;SDS011;8344;47.560;9.710;2024-03-25T06:11:58;0.60;;;0.60;;
16466;SDS011;8344;47.560;9.710;2024-03-25T06:14:24;0.63;;;0.63;;
16466;SDS011;8344;47.560;9.710;2024-03-25T06:16:49;0.70;;;0.70;;
16466;SDS011;8344;47.560;9.710;2024-03-25T06:19:14;0.60;;;0.60;;
16466;SDS011;8344;47.560;9.710;2024-03-25T06:21:39;0.70;;;0.70;;
16466;SDS011;8344;47.560;9.710;2024-03-25T06:24:05;0.50;;;0.50;;
16466;SDS011;8344;47.560;9.710;2024-03-25T06:26:30;0.70;;;0.70;;
16466;SDS011;8344;47.560;9.710;2024-03-25T06:28:56;0.60;;;0.60;;
16466;SDS011;8344;47.560;9.710;2024-03-25T06:31:21;0.40;;;0.40;;
16466;SDS011;8344;47.560;9.710;2024-03-25T06:34:05;0.40;;;0.40;;
16466;SDS011;8344;47.560;9.710;2024-03-25T06:36:42;0.50;;;0.50;;
16466;SDS011;8344;47.560;9.710;2024-03-25T06:39:07;0.50;;;0.50;;
16466;SDS011;8344;47.560;9.710;2024-03-25T06:41:32;0.50;;;0.50;;
16466;SDS011;8344;47.560;9.710;2024-03-25T06:43:58;0.40;;;0.40;;
16466;SDS011;8344;47.560;9.710;2024-03-25T06:46:23;0.40;;;0.40;;
16466;SDS011;8344;47.560;9.710;2024-03-25T06:48:48;0.77;;;0.77;;
16466;SDS011;8344;47.560;9.710;2024-03-25T06:51:14;0.50;;;0.50;;
16466;SDS011;8344;47.560;9.710;2024-03-25T06:53:39;0.53;;;0.53;;
16466;SDS011;8344;47.560;9.710;2024-03-25T06:56:04;0.50;;;0.50;;
16466;SDS011;8344;47.560;9.710;2024-03-25T06:58:30;0.60;;;0.60;;
16466;SDS011;8344;47.560;9.710;2024-03-25T07:00:56;0.80;;;0.80;;
16466;SDS011;8344;47.560;9.710;2024-03-25T07:03:22;0.40;;;0.40;;
16466;SDS011;8344;47.560;9.710;2024-03-25T07:05:49;0.50;;;0.50;;
16466;SDS011;8344;47.560;9.710;2024-03-25T07:08:17;0.57;;;0.57;;
16466;SDS011;8344;47.560;9.710;2024-03-25T07:10:44;0.50;;;0.50;;
16466;SDS011;8344;47.560;9.710;2024-03-25T07:13:09;0.50;;;0.50;;
16466;SDS011;8344;47.560;9.710;2024-03-25T07:15:35;0.60;;;0.60;;
16466;SDS011;8344;47.560;9.710;2024-03-25T07:18:00;0.47;;;0.47;;
16466;SDS011;8344;47.560;9.710;2024-03-25T07:20:25;0.60;;;0.60;;
16466;SDS011;8344;47.560;9.710;2024-03-25T07:22:51;0.40;;;0.40;;
16466;SDS011;8344;47.560;9.710;2024-03-25T07:25:17;0.60;;;0.60;;
16466;SDS011;8344;47.560;9.710;2024-03-25T07:27:42;0.50;;;0.50;;
16466;SDS011;8344;47.560;9.710;2024-03-25T07:30:07;0.40;;;0.40;;
16466;SDS011;8344;47.560;9.710;2024-03-25T07:32:33;0.57;;;0.57;;
16466;SDS011;8344;47.560;9.710;2024-03-25T07:34:59;0.60;;;0.60;;
16466;SDS011;8344;47.560;9.710;2024-03-25T07:37:25;0.40;;;0.40;;
16466;SDS011;8344;47.560;9.710;2024-03-25T07:39:50;0.33;;;0.33;;
16466;SDS011;8344;47.560;9.710;2024-03-25T07:42:15;0.40;;;0.40;;
16466;SDS011;8344;47.560;9.710;2024-03-25T07:44:40;0.50;;;0.50;;
16466;SDS011;8344;47.560;9.710;2024-03-25T07:47:06;0.60;;;0.60;;
16466;SDS011;8344;47.560;9.710;2024-03-25T07:49:31;0.50;;;0.50;;
16466;SDS011;8344;47.560;9.710;2024-03-25T07:51:58;0.60;;;0.60;;
16466;SDS011;8344;47.560;9.710;2024-03-25T07:54:24;0.40;;;0.40;;
16466;SDS011;8344;47.560;9.710;2024-03-25T07:56:51;0.40;;;0.40;;
16466;SDS011;8344;47.560;9.710;2024-03-25T07:59:17;0.60;;;0.60;;
16466;SDS011;8344;47.560;9.710;2024-03-25T08:01:42;0.40;;;0.40;;
16466;SDS011;8344;47.560;9.710;2024-03-25T08:04:08;0.60;;;0.60;;
16466;SDS011;8344;47.560;9.710;2024-03-25T08:06:33;0.40;;;0.40;;
16466;SDS011;8344;47.560;9.710;2024-03-25T08:08:59;0.50;;;0.50;;
16466;SDS011;8344;47.560;9.710;2024-03-25T08:11:24;0.40;;;0.40;;
16466;SDS011;8344;47.560;9.710;2024-03-25T08:13:49;0.50;;;0.50;;
16466;SDS011;8344;47.560;9.710;2024-03-25T08:16:15;0.50;;;0.50;;
16466;SDS011;8344;47.560;9.710;2024-03-25T08:18:40;0.43;;;0.43;;
16466;SDS011;8344;47.560;9.710;2024-03-25T08:21:05;0.50;;;0.50;;
16466;SDS011;8344;47.560;9.710;2024-03-25T08:23:30;0.47;;;0.47;;
16466;SDS011;8344;47.560;9.710;2024-03-25T08:25:56;0.47;;;0.47;;
16466;SDS011;8344;47.560;9.710;2024-03-25T08:28:21;0.70;;;0.70;;
16466;SDS011;8344;47.560;9.710;2024-03-25T08:30:46;0.40;;;0.40;;
16466;SDS011;8344;47.560;9.710;2024-03-25T08:33:12;0.50;;;0.50;;
16466;SDS011;8344;47.560;9.710;2024-03-25T08:35:37;0.40;;;0.40;;
16466;SDS011;8344;47.560;9.710;2024-03-25T08:38:03;0.47;;;0.47;;
16466;SDS011;8344;47.560;9.710;2024-03-25T08:40:28;0.40;;;0.40;;
16466;SDS011;8344;47.560;9.710;2024-03-25T08:42:54;0.50;;;0.50;;
16466;SDS011;8344;47.560;9.710;2024-03-25T08:45:19;0.30;;;0.30;;
16466;SDS011;8344;47.560;9.710;2024-03-25T08:47:44;0.40;;;0.40;;
16466;SDS011;8344;47.560;9.710;2024-03-25T08:50:10;0.60;;;0.60;;
16466;SDS011;8344;47.560;9.710;2024-03-25T08:52:35;0.30;;;0.30;;
16466;SDS011;8344;47.560;9.710;2024-03-25T08:55:00;0.40;;;0.40;;
16466;SDS011;8344;47.560;9.710;2024-03-25T08:57:26;0.40;;;0.40;;
16466;SDS011;8344;47.560;9.710;2024-03-25T08:59:51;0.40;;;0.40;;
16466;SDS011;8344;47.560;9.710;2024-03-25T09:02:16;0.30;;;0.30;;
16466;SDS011;8344;47.560;9.710;2024-03-25T09:04:43;0.50;;;0.50;;
16466;SDS011;8344;47.560;9.710;2024-03-25T09:07:09;0.40;;;0.40;;
16466;SDS011;8344;47.560;9.710;2024-03-25T09:09:34;0.40;;;0.40;;
16466;SDS011;8344;47.560;9.710;2024-03-25T09:12:18;0.25;;;0.25;;
16466;SDS011;8344;47.560;9.710;2024-03-25T09:14:43;0.22;;;0.22;;
16466;SDS011;8344;47.560;9.710;2024-03-25T09:17:08;0.30;;;0.30;;
16466;SDS011;8344;47.560;9.710;2024-03-25T09:19:33;0.40;;;0.40;;
16466;SDS011;8344;47.560;9.710;2024-03-25T09:21:59;0.50;;;0.50;;
16466;SDS011;8344;47.560;9.710;2024-03-25T09:24:24;0.28;;;0.28;;
16466;SDS011;8344;47.560;9.710;2024-03-25T09:26:50;0.30;;;0.30;;
16466;SDS011;8344;47.560;9.710;2024-03-25T09:29:15;0.40;;;0.40;;
16466;SDS011;8344;47.560;9.710;2024-03-25T09:31:41;0.30;;;0.30;;
16466;SDS011;8344;47.560;9.710;2024-03-25T09:34:06;0.47;;;0.47;;
16466;SDS011;8344;47.560;9.710;2024-03-25T09:36:31;0.40;;;0.40;;
16466;SDS011;8344;47.560;9.710;2024-03-25T09:38:56;0.30;;;0.30;;
16466;SDS011;8344;47.560;9.710;2024-03-25T09:41:22;0.30;;;0.30;;
16466;SDS011;8344;47.560;9.710;2024-03-25T09:43:48;0.30;;;0.30;;
16466;SDS011;8344;47.560;9.710;2024-03-25T09:46:15;0.30;;;0.30;;
16466;SDS011;8344;47.560;9.710;2024-03-25T09:48:41;0.50;;;0.50;;
16466;SDS011;8344;47.560;9.710;2024-03-25T09:51:06;0.52;;;0.52;;
16466;SDS011;8344;47.560;9.710;2024-03-25T09:53:32;0.30;;;0.30;;
16466;SDS011;8344;47.560;9.710;2024-03-25T09:55:57;0.30;;;0.30;;
16466;SDS011;8344;47.560;9.710;2024-03-25T09:58:24;0.40;;;0.40;;
16466;SDS011;8344;47.560;9.710;2024-03-25T10:00:50;0.22;;;0.22;;
16466;SDS011;8344;47.560;9.710;2024-03-25T10:03:15;0.30;;;0.30;;
16466;SDS011;8344;47.560;9.710;2024-03-25T10:05:41;0.50;;;0.50;;
16466;SDS011;8344;47.560;9.710;2024-03-25T10:08:06;0.50;;;0.50;;
16466;SDS011;8344;47.560;9.710;2024-03-25T10:10:33;0.32;;;0.32;;
16466;SDS011;8344;47.560;9.710;2024-03-25T10:12:59;0.32;;;0.32;;
16466;SDS011;8344;47.560;9.710;2024-03-25T10:15:24;0.40;;;0.40;;
16466;SDS011;8344;47.560;9.710;2024-03-25T10:17:51;0.30;;;0.30;;
16466;SDS011;8344;47.560;9.710;2024-03-25T10:20:17;0.40;;;0.40;;
16466;SDS011;8344;47.560;9.710;2024-03-25T10:22:43;0.52;;;0.52;;
16466;SDS011;8344;47.560;9.710;2024-03-25T10:30:25;0.40;;;0.40;;
16466;SDS011;8344;47.560;9.710;2024-03-25T10:33:00;0.40;;;0.40;;
16466;SDS011;8344;47.560;9.710;2024-03-25T10:35:27;0.40;;;0.40;;
16466;SDS011;8344;47.560;9.710;2024-03-25T10:37:59;0.40;;;0.40;;
16466;SDS011;8344;47.560;9.710;2024-03-25T10:40:35;0.30;;;0.30;;
16466;SDS011;8344;47.560;9.710;2024-03-25T10:43:03;0.40;;;0.40;;
16466;SDS011;8344;47.560;9.710;2024-03-25T10:45:34;0.20;;;0.20;;
16466;SDS011;8344;47.560;9.710;2024-03-25T10:48:02;0.30;;;0.30;;
16466;SDS011;8344;47.560;9.710;2024-03-25T10:50:29;0.30;;;0.30;;
16466;SDS011;8344;47.560;9.710;2024-03-25T10:52:56;0.30;;;0.30;;
16466;SDS011;8344;47.560;9.710;2024-03-25T10:55:22;0.30;;;0.30;;
16466;SDS011;8344;47.560;9.710;2024-03-25T10:57:48;0.30;;;0.30;;
16466;SDS011;8344;47.560;9.710;2024-03-25T11:00:13;0.30;;;0.30;;
16466;SDS011;8344;47.560;9.710;2024-03-25T11:02:40;0.30;;;0.30;;
16466;SDS011;8344;47.560;9.710;2024-03-25T11:05:08;0.30;;;0.30;;
16466;SDS011;8344;47.560;9.710;2024-03-25T11:07:35;0.30;;;0.30;;
16466;SDS011;8344;47.560;9.710;2024-03-25T11:10:03;0.28;;;0.28;;
16466;SDS011;8344;47.560;9.710;2024-03-25T11:12:37;0.20;;;0.20;;
16466;SDS011;8344;47.560;9.710;2024-03-25T11:15:03;0.38;;;0.38;;
16466;SDS011;8344;47.560;9.710;2024-03-25T11:17:30;0.30;;;0.30;;
16466;SDS011;8344;47.560;9.710;2024-03-25T11:20:15;0.30;;;0.30;;
16466;SDS011;8344;47.560;9.710;2024-03-25T11:22:53;0.22;;;0.22;;
16466;SDS011;8344;47.560;9.710;2024-03-25T11:25:20;0.20;;;0.20;;
16466;SDS011;8344;47.560;9.710;2024-03-25T11:27:46;0.30;;;0.30;;
16466;SDS011;8344;47.560;9.710;2024-03-25T11:30:12;0.38;;;0.38;;
16466;SDS011;8344;47.560;9.710;2024-03-25T11:35:09;0.20;;;0.20;;
16466;SDS011;8344;47.560;9.710;2024-03-25T11:37:39;0.30;;;0.30;;
16466;SDS011;8344;47.560;9.710;2024-03-25T11:40:05;0.25;;;0.25;;
16466;SDS011;8344;47.560;9.710;2024-03-25T11:42:32;0.40;;;0.40;;
16466;SDS011;8344;47.560;9.710;2024-03-25T11:44:57;0.30;;;0.30;;
16466;SDS011;8344;47.560;9.710;2024-03-25T11:47:22;0.40;;;0.40;;
16466;SDS011;8344;47.560;9.710;2024-03-25T11:49:48;0.40;;;0.40;;
16466;SDS011;8344;47.560;9.710;2024-03-25T11:52:14;0.30;;;0.30;;
16466;SDS011;8344;47.560;9.710;2024-03-25T11:54:41;0.20;;;0.20;;
16466;SDS011;8344;47.560;9.710;2024-03-25T11:57:07;0.22;;;0.22;;
16466;SDS011;8344;47.560;9.710;2024-03-25T11:59:33;0.20;;;0.20;;
16466;SDS011;8344;47.560;9.710;2024-03-25T12:01:58;0.30;;;0.30;;
16466;SDS011;8344;47.560;9.710;2024-03-25T12:04:24;0.20;;;0.20;;
16466;SDS011;8344;47.560;9.710;2024-03-25T12:06:49;0.25;;;0.25;;
16466;SDS011;8344;47.560;9.710;2024-03-25T12:09:14;0.28;;;0.28;;
16466;SDS011;8344;47.560;9.710;2024-03-25T12:11:58;0.38;;;0.38;;
16466;SDS011;8344;47.560;9.710;2024-03-25T12:14:23;0.40;;;0.40;;
16466;SDS011;8344;47.560;9.710;2024-03-25T12:16:51;0.25;;;0.25;;
16466;SDS011;8344;47.560;9.710;2024-03-25T12:19:19;0.32;;;0.32;;
16466;SDS011;8344;47.560;9.710;2024-03-25T12:21:44;0.20;;;0.20;;
16466;SDS011;8344;47.560;9.710;2024-03-25T12:24:11;0.30;;;0.30;;
16466;SDS011;8344;47.560;9.710;2024-03-25T12:26:36;0.20;;;0.20;;
16466;SDS011;8344;47.560;9.710;2024-03-25T12:29:02;0.20;;;0.20;;
16466;SDS011;8344;47.560;9.710;2024-03-25T12:31:29;0.20;;;0.20;;
16466;SDS011;8344;47.560;9.710;2024-03-25T12:33:54;0.30;;;0.30;;
16466;SDS011;8344;47.560;9.710;2024-03-25T12:36:20;0.30;;;0.30;;
16466;SDS011;8344;47.560;9.710;2024-03-25T12:38:53;0.30;;;0.30;;
16466;SDS011;8344;47.560;9.710;2024-03-25T12:41:21;0.30;;;0.30;;
16466;SDS011;8344;47.560;9.710;2024-03-25T12:43:47;0.30;;;0.30;;
16466;SDS011;8344;47.560;9.710;2024-03-25T12:46:15;0.30;;;0.30;;
16466;SDS011;8344;47.560;9.710;2024-03-25T12:48:40;0.30;;;0.30;;
16466;SDS011;8344;47.560;9.710;2024-03-25T12:51:06;0.30;;;0.30;;
16466;SDS011;8344;47.560;9.710;2024-03-25T12:53:37;0.40;;;0.40;;
16466;SDS011;8344;47.560;9.710;2024-03-25T12:56:02;0.20;;;0.20;;
16466;SDS011;8344;47.560;9.710;2024-03-25T12:58:28;0.38;;;0.38;;
16466;SDS011;8344;47.560;9.710;2024-03-25T13:00:53;0.40;;;0.40;;
16466;SDS011;8344;47.560;9.710;2024-03-25T13:03:18;0.30;;;0.30;;
16466;SDS011;8344;47.560;9.710;2024-03-25T13:05:44;0.40;;;0.40;;
16466;SDS011;8344;47.560;9.710;2024-03-25T13:08:09;0.30;;;0.30;;
16466;SDS011;8344;47.560;9.710;2024-03-25T13:10:34;0.20;;;0.20;;
16466;SDS011;8344;47.560;9.710;2024-03-25T13:13:00;0.43;;;0.43;;
16466;SDS011;8344;47.560;9.710;2024-03-25T13:15:26;0.30;;;0.30;;
16466;SDS011;8344;47.560;9.710;2024-03-25T13:17:51;0.30;;;0.30;;
16466;SDS011;8344;47.560;9.710;2024-03-25T13:20:17;0.22;;;0.22;;
16466;SDS011;8344;47.560;9.710;2024-03-25T13:22:43;0.30;;;0.30;;
16466;SDS011;8344;47.560;9.710;2024-03-25T13:25:09;0.30;;;0.30;;
16466;SDS011;8344;47.560;9.710;2024-03-25T13:27:34;0.20;;;0.20;;
16466;SDS011;8344;47.560;9.710;2024-03-25T13:30:00;0.30;;;0.30;;
16466;SDS011;8344;47.560;9.710;2024-03-25T13:32:25;0.30;;;0.30;;
16466;SDS011;8344;47.560;9.710;2024-03-25T13:34:50;0.32;;;0.32;;
16466;SDS011;8344;47.560;9.710;2024-03-25T13:37:16;0.30;;;0.30;;
16466;SDS011;8344;47.560;9.710;2024-03-25T13:39:41;0.40;;;0.40;;
16466;SDS011;8344;47.560;9.710;2024-03-25T13:42:06;0.30;;;0.30;;
16466;SDS011;8344;47.560;9.710;2024-03-25T13:44:32;0.30;;;0.30;;
16466;SDS011;8344;47.560;9.710;2024-03-25T13:46:57;0.30;;;0.30;;
16466;SDS011;8344;47.560;9.710;2024-03-25T13:49:22;0.30;;;0.30;;
16466;SDS011;8344;47.560;9.710;2024-03-25T13:51:58;0.30;;;0.30;;
16466;SDS011;8344;47.560;9.710;2024-03-25T13:54:23;0.22;;;0.22;;
16466;SDS011;8344;47.560;9.710;2024-03-25T13:56:49;0.20;;;0.20;;
16466;SDS011;8344;47.560;9.710;2024-03-25T13:59:15;0.40;;;0.40;;
16466;SDS011;8344;47.560;9.710;2024-03-25T14:01:40;0.30;;;0.30;;
16466;SDS011;8344;47.560;9.710;2024-03-25T14:04:06;0.30;;;0.30;;
16466;SDS011;8344;47.560;9.710;2024-03-25T14:06:31;0.30;;;0.30;;
16466;SDS011;8344;47.560;9.710;2024-03-25T14:08:57;0.30;;;0.30;;
16466;SDS011;8344;47.560;9.710;2024-03-25T14:11:23;0.40;;;0.40;;
16466;SDS011;8344;47.560;9.710;2024-03-25T14:13:48;0.20;;;0.20;;
16466;SDS011;8344;47.560;9.710;2024-03-25T14:16:13;0.30;;;0.30;;
16466;SDS011;8344;47.560;9.710;2024-03-25T14:18:39;0.30;;;0.30;;
16466;SDS011;8344;47.560;9.710;2024-03-25T14:21:04;0.30;;;0.30;;
16466;SDS011;8344;47.560;9.710;2024-03-25T14:23:29;0.40;;;0.40;;
16466;SDS011;8344;47.560;9.710;2024-03-25T14:25:55;0.30;;;0.30;;
16466;SDS011;8344;47.560;9.710;2024-03-25T14:28:20;0.25;;;0.25;;
16466;SDS011;8344;47.560;9.710;2024-03-25T14:30:45;0.20;;;0.20;;
16466;SDS011;8344;47.560;9.710;2024-03-25T14:33:11;0.30;;;0.30;;
16466;SDS011;8344;47.560;9.710;2024-03-25T14:35:37;0.20;;;0.20;;
16466;SDS011;8344;47.560;9.710;2024-03-25T14:38:02;0.20;;;0.20;;
16466;SDS011;8344;47.560;9.710;2024-03-25T14:40:28;0.30;;;0.30;;
16466;SDS011;8344;47.560;9.710;2024-03-25T14:42:53;0.30;;;0.30;;
16466;SDS011;8344;47.560;9.710;2024-03-25T14:45:18;0.30;;;0.30;;
16466;SDS011;8344;47.560;9.710;2024-03-25T14:47:43;0.30;;;0.30;;
16466;SDS011;8344;47.560;9.710;2024-03-25T14:50:09;0.30;;;0.30;;
16466;SDS011;8344;47.560;9.710;2024-03-25T14:52:34;0.20;;;0.20;;
16466;SDS011;8344;47.560;9.710;2024-03-25T14:55:01;0.20;;;0.20;;
16466;SDS011;8344;47.560;9.710;2024-03-25T14:57:26;0.30;;;0.30;;
16466;SDS011;8344;47.560;9.710;2024-03-25T14:59:52;0.30;;;0.30;;